Details From USSS - Koltsovo
To KVOK - Volk Fld
Flight Number -
Tags Generated
Created
Modified
Stats Distance 4,590 nm / 8,501 km
Max Altitude 0 ft / 0 m
Waypoints 6
Social Downloads 1
Likes 0
Share VATSIM

Download

Looking for another format? Having issues loading an existing format? Contact us
Advertisement - Login to hide

Notes

Generated

Route

USSS OKULA OTSEK FEMOK ZENAR KVOK

ID Type Via Altitude Latitude Longitude Leg Dist Tot Dist Heading (true) Name
O USSS APT - 0 ft / 0 m 56.74481˚ 60.78140˚ - 0 nm - -
OKULA FIX - 0 ft / 0 m 60.08833˚ 58.46000˚ 213 nm 213 nm 341° / 339° -
OTSEK FIX - 0 ft / 0 m 63.68333˚ 55.03333˚ 236 nm 450 nm 337° / 334° -
FEMOK FIX - 0 ft / 0 m 47.45758˚ -88.73339˚ 3918 nm 4369 nm 334° / 197° -
ZENAR FIX - 0 ft / 0 m 43.93903˚ -90.27024˚ 220 nm 4590 nm 198° / 196° -
O KVOK APT - 0 ft / 0 m 43.93903˚ -90.27024˚ 0 nm 4590 nm 0° / 180° -

Altitude Profile

Advertisement - Login to hide

Weather


0- 5 10 15 20 25 30 35+ Temperature / ° C

Clouds and Precipitation
Forecast for 2018-05-26 12:00 UTC. Updated 5 hours ago

Ground ~20,000 ft ~40,000 ft Winds

USSS

Details ICAO USSS (SVX)
Name KOLTSOVO
Region Russia
Timezone Asia/Yekaterinburg (UTC+5.0)
Stats Elevation 764 ft / 233 m (AMSL)
Location 56.743108° 60.802727°
Runways 2
Magnetic Variation 14.901° E

METAR

USSS 261600Z 34003MPS CAVOK 08/M07 Q1020 R26R/010060 R26L/010060 NOSIG RMK QFE744/0993

Decode

TAF

TAF USSS 261401Z 2615/2715 33005MPS 9999 SCT020CB TEMPO 2615/2618 35010MPS BECMG 2618/2620 29003MPS 5000 BR BECMG 2702/2704 9999 NSW

Decode

Departure Runways

ID Width Length Bearing (true) Bearing (mag) Surface Threshold Offset Overrun Length
08L 148 ft / 45 m 8,172 ft / 2,491 m 90.13° 75.23° Asphalt 0 ft / 0 m 230 ft / 70 m
08R 174 ft / 53 m 9,861 ft / 3,006 m 94.09° 79.19° Concrete 246 ft / 75 m 165 ft / 50 m
26L 174 ft / 53 m 9,861 ft / 3,006 m 274.14° 259.24° Concrete 1,066 ft / 325 m 165 ft / 50 m
26R 148 ft / 45 m 8,172 ft / 2,491 m 270.17° 255.27° Asphalt 0 ft / 0 m 220 ft / 67 m

KVOK

Details ICAO KVOK (VOK)
Name VOLK FLD
Region United States
Timezone America/Chicago (UTC-5.0)
Stats Elevation 912 ft / 278 m (AMSL)
Location 43.939237° -90.253163°
Runways 1
Magnetic Variation 2.162° W

METAR

KVOK 261556Z AUTO 00000KT 10SM CLR 27/20 A2977 RMK AO2 SLP079 T02720195 $

Decode

TAF

Not found

Destination Runways

ID Width Length Bearing (true) Bearing (mag) Surface Threshold Offset Overrun Length
09 150 ft / 46 m 8,977 ft / 2,736 m 89.00° 91.16° Concrete 0 ft / 0 m 1,000 ft / 305 m
27 150 ft / 46 m 8,977 ft / 2,736 m 269.02° 271.18° Concrete 0 ft / 0 m 1,000 ft / 305 m

Approach Navaids

Runway Type Ident Frequency Range Bearing (true) Bearing (mag) Slope Elevation
27 Localiser IVOK 108.50 MHz 18 nm / 33 km 268.58° 270.74° - 914 ft / 279 m (AMSL)
27 Glidescope IVOK 108.50 MHz 10 nm / 19 km 269.01° 271.17° 2.85° 903 ft / 275 m (AMSL)